createdAt,value
2017-11-10T00:00:18.708Z,7.90
2017-11-10T00:02:47.779Z,8.00
2017-11-10T00:05:16.523Z,7.90
2017-11-10T00:07:44.872Z,8.00
2017-11-10T00:10:13.258Z,8.00
2017-11-10T00:12:41.645Z,8.00
2017-11-10T00:15:10.043Z,8.00
2017-11-10T00:17:39.434Z,7.90
2017-11-10T00:20:07.971Z,7.90
2017-11-10T00:22:36.323Z,7.90
2017-11-10T00:25:04.349Z,7.90
2017-11-10T00:27:32.720Z,7.90
2017-11-10T00:30:01.953Z,8.00
2017-11-10T00:32:31.114Z,7.90
2017-11-10T00:34:59.476Z,8.00
2017-11-10T00:37:27.843Z,7.90
2017-11-10T00:39:56.232Z,7.90
2017-11-10T00:42:25.409Z,7.90
2017-11-10T00:44:54.664Z,7.90
2017-11-10T00:47:23.017Z,7.90
2017-11-10T00:49:51.421Z,7.90
2017-11-10T00:52:20.050Z,8.00
2017-11-10T00:54:48.507Z,8.00
2017-11-10T00:57:17.308Z,7.90
2017-11-10T00:59:46.312Z,7.90
2017-11-10T01:02:15.248Z,7.90
2017-11-10T01:04:43.755Z,7.90
2017-11-10T01:07:13.124Z,7.90
2017-11-10T01:09:42.991Z,7.90
2017-11-10T01:12:12.254Z,7.90
2017-11-10T01:14:40.727Z,7.90
2017-11-10T01:17:09.342Z,7.90
2017-11-10T01:19:37.701Z,7.90
2017-11-10T01:22:07.466Z,7.90
2017-11-10T01:24:35.840Z,7.90
2017-11-10T01:27:05.234Z,7.90
2017-11-10T01:29:34.364Z,8.00
2017-11-10T01:32:02.823Z,8.00
2017-11-10T01:34:32.058Z,8.00
2017-11-10T01:37:00.097Z,7.90
2017-11-10T01:39:28.467Z,8.00
2017-11-10T01:41:57.482Z,8.00
2017-11-10T01:44:25.852Z,8.00
2017-11-10T01:46:54.528Z,8.00
2017-11-10T01:49:28.618Z,8.00
2017-11-10T01:51:57.754Z,8.00
2017-11-10T01:54:26.576Z,8.00
2017-11-10T01:56:54.907Z,8.00
2017-11-10T01:59:23.140Z,8.00
2017-11-10T02:01:51.782Z,8.00
2017-11-10T02:04:20.147Z,8.00
2017-11-10T02:06:48.513Z,8.00
2017-11-10T02:09:16.976Z,8.00
2017-11-10T02:11:45.458Z,8.00
2017-11-10T02:14:13.902Z,8.00
2017-11-10T02:16:42.252Z,8.00
2017-11-10T02:19:11.778Z,8.00
2017-11-10T02:21:47.217Z,8.00
2017-11-10T02:24:16.087Z,8.00
2017-11-10T02:26:43.986Z,8.00
2017-11-10T02:29:14.241Z,8.00
2017-11-10T02:31:42.418Z,8.00
2017-11-10T02:34:13.403Z,8.00
2017-11-10T02:36:42.815Z,8.00
2017-11-10T02:39:11.107Z,8.00
2017-11-10T02:41:39.446Z,8.00
2017-11-10T02:44:08.459Z,7.90
2017-11-10T02:46:36.806Z,8.00
2017-11-10T02:49:06.151Z,8.00
2017-11-10T02:51:34.438Z,8.00
2017-11-10T02:54:03.582Z,8.00
2017-11-10T02:56:32.913Z,8.10
2017-11-10T02:59:01.298Z,8.00
2017-11-10T03:01:29.562Z,8.10
2017-11-10T03:03:58.453Z,8.00
2017-11-10T03:06:26.965Z,8.10
2017-11-10T03:08:55.973Z,8.00
2017-11-10T03:11:26.104Z,8.10
2017-11-10T03:13:54.111Z,8.10
2017-11-10T03:16:23.066Z,8.10
2017-11-10T03:18:51.421Z,8.10
2017-11-10T03:21:19.792Z,8.10
2017-11-10T03:23:49.211Z,8.10
2017-11-10T03:26:17.860Z,8.00
2017-11-10T03:28:46.243Z,8.10
2017-11-10T03:31:14.592Z,8.10
2017-11-10T03:33:43.808Z,8.10
2017-11-10T03:36:12.287Z,8.10
2017-11-10T03:38:40.697Z,8.10
2017-11-10T03:41:09.327Z,8.10
2017-11-10T03:43:37.326Z,8.10
2017-11-10T03:46:05.038Z,8.10
2017-11-10T03:48:34.233Z,8.10
2017-11-10T03:51:02.613Z,8.10
2017-11-10T03:53:30.959Z,8.10
2017-11-10T03:56:00.082Z,8.10
2017-11-10T03:58:29.068Z,8.10
2017-11-10T04:00:57.109Z,8.10
2017-11-10T04:03:26.740Z,8.10
2017-11-10T04:05:55.219Z,8.10
2017-11-10T04:08:23.588Z,8.20
2017-11-10T04:10:51.691Z,8.20
2017-11-10T04:13:20.702Z,8.10
2017-11-10T04:15:49.059Z,8.20
2017-11-10T04:18:17.426Z,8.20
2017-11-10T04:20:45.952Z,8.20
2017-11-10T04:23:14.014Z,8.20
2017-11-10T04:25:42.389Z,8.20
2017-11-10T04:28:10.797Z,8.20
2017-11-10T04:30:39.164Z,8.20
2017-11-10T04:33:07.784Z,8.20
2017-11-10T04:35:36.059Z,8.20
2017-11-10T04:38:04.067Z,8.30
2017-11-10T04:40:32.094Z,8.30
2017-11-10T04:43:00.129Z,8.30
2017-11-10T04:45:28.499Z,8.30
2017-11-10T04:47:56.867Z,8.30
2017-11-10T04:50:24.891Z,8.30
2017-11-10T04:52:53.519Z,8.30
2017-11-10T04:55:21.888Z,8.30
2017-11-10T04:57:50.251Z,8.30
2017-11-10T05:00:17.952Z,8.30
2017-11-10T05:02:46.328Z,8.30
2017-11-10T05:05:14.691Z,8.30
2017-11-10T05:07:43.978Z,8.30
2017-11-10T05:10:12.465Z,8.40
2017-11-10T05:12:41.098Z,8.20
2017-11-10T05:15:09.464Z,8.40
2017-11-10T05:17:37.819Z,8.40
2017-11-10T05:20:06.196Z,8.40
2017-11-10T05:22:34.668Z,8.40
2017-11-10T05:25:03.043Z,8.40
2017-11-10T05:27:31.223Z,8.40
2017-11-10T05:29:59.391Z,8.40
2017-11-10T05:32:27.282Z,8.40
2017-11-10T05:34:55.449Z,8.40
2017-11-10T05:37:23.119Z,8.40
2017-11-10T05:39:51.301Z,8.40
2017-11-10T05:42:19.740Z,8.40
2017-11-10T05:44:48.143Z,8.40
2017-11-10T05:47:16.579Z,8.40
2017-11-10T05:49:44.747Z,8.40
2017-11-10T05:52:12.938Z,8.50
2017-11-10T05:54:41.273Z,8.50
2017-11-10T05:57:09.721Z,8.50
2017-11-10T05:59:37.196Z,8.50
2017-11-10T06:02:04.867Z,8.50
2017-11-10T06:04:32.786Z,8.50
2017-11-10T06:07:01.727Z,8.50
2017-11-10T06:09:30.081Z,8.50
2017-11-10T06:11:58.863Z,8.50
2017-11-10T06:14:28.524Z,8.50
2017-11-10T06:16:56.876Z,8.50
2017-11-10T06:19:25.256Z,8.50
2017-11-10T06:21:53.868Z,8.60
2017-11-10T06:24:21.879Z,8.60
2017-11-10T06:26:51.019Z,8.60
2017-11-10T06:29:19.386Z,8.60
2017-11-10T06:31:47.757Z,8.60
2017-11-10T06:34:16.136Z,8.60
2017-11-10T06:36:44.510Z,8.70
2017-11-10T06:39:12.887Z,8.70
2017-11-10T06:41:41.254Z,8.70
2017-11-10T06:44:09.631Z,8.70
2017-11-10T06:46:38.035Z,8.70
2017-11-10T06:49:06.655Z,8.70
2017-11-10T06:51:35.009Z,8.70
2017-11-10T06:54:03.371Z,8.70
2017-11-10T06:56:31.742Z,8.70
2017-11-10T06:59:00.105Z,8.70
2017-11-10T07:01:28.140Z,8.70
2017-11-10T07:03:57.470Z,8.70
2017-11-10T07:06:25.491Z,8.70
2017-11-10T07:08:54.628Z,8.70
2017-11-10T07:11:23.010Z,8.60
2017-11-10T07:13:51.797Z,8.60
2017-11-10T07:16:20.151Z,8.60
2017-11-10T07:18:50.288Z,8.60
2017-11-10T07:21:18.646Z,8.60
2017-11-10T07:23:47.010Z,8.50
2017-11-10T07:26:15.410Z,8.60
2017-11-10T07:28:43.988Z,8.60
2017-11-10T07:31:12.340Z,8.60
2017-11-10T07:33:41.356Z,8.60
2017-11-10T07:36:09.715Z,8.50
2017-11-10T07:38:38.072Z,8.50
2017-11-10T07:41:06.710Z,8.60
2017-11-10T07:43:35.077Z,8.60
2017-11-10T07:46:03.703Z,8.60
2017-11-10T07:48:32.067Z,8.60
2017-11-10T07:51:00.444Z,8.60
2017-11-10T07:53:29.127Z,8.60
2017-11-10T07:55:57.742Z,8.70
2017-11-10T07:58:26.123Z,8.70
2017-11-10T08:00:54.521Z,8.70
2017-11-10T08:03:22.886Z,8.70
2017-11-10T08:05:51.503Z,8.80
2017-11-10T08:08:20.153Z,8.80
2017-11-10T08:10:48.543Z,8.80
2017-11-10T08:13:17.125Z,8.80
2017-11-10T08:15:45.492Z,8.80
2017-11-10T08:18:13.896Z,8.80
2017-11-10T08:20:42.299Z,8.80
2017-11-10T08:23:11.252Z,8.80
2017-11-10T08:25:39.616Z,8.80
2017-11-10T08:28:08.991Z,8.80
2017-11-10T08:30:37.681Z,8.80
2017-11-10T08:33:06.120Z,8.90
2017-11-10T08:35:35.255Z,8.90
2017-11-10T08:38:03.642Z,8.90
2017-11-10T08:40:32.012Z,8.90
2017-11-10T08:43:00.399Z,8.90
2017-11-10T08:45:29.069Z,9.00
2017-11-10T08:47:57.445Z,9.00
2017-11-10T08:50:25.858Z,9.00
2017-11-10T08:52:54.248Z,9.00
2017-11-10T08:55:24.141Z,9.00
2017-11-10T08:57:52.492Z,9.00
2017-11-10T09:00:20.903Z,9.00
2017-11-10T09:02:49.920Z,9.00
2017-11-10T09:05:18.097Z,9.10
2017-11-10T09:07:46.460Z,9.10
2017-11-10T09:10:14.640Z,9.10
2017-11-10T09:12:44.776Z,9.20
2017-11-10T09:15:13.194Z,9.20
2017-11-10T09:17:41.370Z,9.30
2017-11-10T09:20:10.142Z,9.30
2017-11-10T09:22:38.832Z,9.30
2017-11-10T09:25:07.078Z,9.40
2017-11-10T09:27:35.150Z,9.40
2017-11-10T09:30:08.523Z,9.50
2017-11-10T09:32:50.023Z,9.50
2017-11-10T09:38:32.375Z,9.60
2017-11-10T09:41:01.687Z,9.50
2017-11-10T09:43:46.371Z,9.50
2017-11-10T09:46:19.186Z,9.60
2017-11-10T09:48:52.791Z,9.60
2017-11-10T09:51:26.271Z,9.70
2017-11-10T09:53:54.448Z,9.80
2017-11-10T09:56:39.691Z,10.00
2017-11-10T09:59:13.619Z,10.10
2017-11-10T10:01:47.745Z,10.20
2017-11-10T10:04:21.547Z,10.10
2017-11-10T10:06:50.739Z,10.00
2017-11-10T10:09:24.463Z,10.10
2017-11-10T10:15:08.078Z,10.10
2017-11-10T10:17:41.922Z,10.10
2017-11-10T10:20:15.684Z,10.20
2017-11-10T10:22:44.350Z,10.30
2017-11-10T10:25:13.423Z,10.40
2017-11-10T10:27:42.225Z,10.40
2017-11-10T10:30:10.729Z,10.40
2017-11-10T10:32:39.108Z,10.50
2017-11-10T10:35:07.133Z,10.40
2017-11-10T10:37:35.954Z,10.50
2017-11-10T10:40:03.435Z,10.50
2017-11-10T10:42:31.828Z,10.60
2017-11-10T10:45:00.368Z,10.70
2017-11-10T10:47:28.801Z,10.80
2017-11-10T10:49:57.939Z,10.90
2017-11-10T10:52:26.426Z,10.90
2017-11-10T10:54:54.814Z,11.00
2017-11-10T10:57:23.170Z,11.00
2017-11-10T10:59:51.556Z,11.00
2017-11-10T11:02:20.164Z,11.00
2017-11-10T11:04:48.535Z,11.00
2017-11-10T11:07:16.913Z,10.90
2017-11-10T11:09:45.355Z,10.80
2017-11-10T11:12:13.800Z,10.80
2017-11-10T11:14:42.221Z,10.80
2017-11-10T11:17:10.582Z,10.80
2017-11-10T11:19:38.775Z,10.80
2017-11-10T11:22:07.141Z,10.80
2017-11-10T11:24:35.524Z,10.80
2017-11-10T11:27:03.988Z,10.80
2017-11-10T11:29:32.359Z,10.70
2017-11-10T11:32:00.730Z,10.70
2017-11-10T11:34:29.094Z,10.70
2017-11-10T11:36:57.469Z,10.60
2017-11-10T11:39:26.093Z,10.60
2017-11-10T11:41:54.552Z,10.50
2017-11-10T11:44:22.909Z,10.50
2017-11-10T11:46:51.535Z,10.50
2017-11-10T11:49:19.905Z,10.40
2017-11-10T11:51:48.275Z,10.30
2017-11-10T11:54:16.645Z,10.30
2017-11-10T11:56:45.045Z,10.20
2017-11-10T11:59:14.153Z,10.20
2017-11-10T12:01:42.566Z,10.20
2017-11-10T12:04:10.932Z,10.20
2017-11-10T12:06:40.121Z,10.10
2017-11-10T12:09:08.910Z,10.10
2017-11-10T12:11:37.265Z,10.10
2017-11-10T12:14:05.939Z,10.10
2017-11-10T12:16:34.310Z,10.00
2017-11-10T12:19:02.745Z,10.00
2017-11-10T12:21:30.480Z,10.10
2017-11-10T12:23:58.170Z,10.10
2017-11-10T12:26:26.550Z,10.20
2017-11-10T12:28:54.235Z,10.30
2017-11-10T12:31:22.423Z,10.20
2017-11-10T12:33:50.806Z,10.20
2017-11-10T12:36:19.198Z,10.20
2017-11-10T12:38:47.568Z,10.20
2017-11-10T12:41:15.842Z,10.20
2017-11-10T12:43:44.994Z,10.30
2017-11-10T12:46:13.372Z,10.30
2017-11-10T12:48:41.737Z,10.20
2017-11-10T12:51:10.361Z,10.20
2017-11-10T12:53:38.730Z,10.20
2017-11-10T12:56:07.362Z,10.40
2017-11-10T12:58:36.639Z,10.40
2017-11-10T13:01:04.727Z,10.60
2017-11-10T13:03:33.162Z,10.60
2017-11-10T13:06:01.181Z,10.70
2017-11-10T13:08:29.541Z,10.60
2017-11-10T13:10:57.975Z,10.70
2017-11-10T13:13:27.145Z,10.60
2017-11-10T13:15:56.220Z,10.60
2017-11-10T13:18:24.558Z,10.60
2017-11-10T13:20:52.764Z,10.60
2017-11-10T13:23:21.239Z,10.60
2017-11-10T13:25:50.168Z,10.70
2017-11-10T13:28:18.535Z,10.70
2017-11-10T13:30:46.895Z,10.80
2017-11-10T13:33:15.292Z,11.00
2017-11-10T13:35:43.729Z,11.00
2017-11-10T13:38:12.098Z,11.10
2017-11-10T13:40:40.585Z,11.10
2017-11-10T13:43:09.799Z,11.00
2017-11-10T13:45:38.345Z,11.00
2017-11-10T13:48:07.842Z,11.00
2017-11-10T13:50:37.671Z,11.00
2017-11-10T13:53:06.357Z,11.00
2017-11-10T13:55:36.661Z,11.00
2017-11-10T13:58:05.119Z,11.10
2017-11-10T14:00:34.833Z,11.10
2017-11-10T14:03:04.057Z,11.20
2017-11-10T14:05:32.481Z,11.20
2017-11-10T14:08:03.601Z,11.10
2017-11-10T14:10:32.156Z,11.10
2017-11-10T14:13:00.938Z,11.00
2017-11-10T14:15:30.317Z,10.80
2017-11-10T14:17:59.128Z,10.70
2017-11-10T14:20:28.541Z,10.10
2017-11-10T14:22:56.969Z,10.10
2017-11-10T14:25:26.018Z,8.40
2017-11-10T14:27:54.385Z,8.30
2017-11-10T14:30:23.594Z,8.00
2017-11-10T14:32:52.047Z,8.10
2017-11-10T14:35:21.354Z,8.20
2017-11-10T14:37:50.664Z,8.40
2017-11-10T14:40:19.170Z,8.40
2017-11-10T14:42:47.648Z,8.60
2017-11-10T14:45:16.029Z,8.60
2017-11-10T14:47:45.332Z,8.60
2017-11-10T14:50:13.827Z,8.70
2017-11-10T14:52:42.635Z,8.70
2017-11-10T14:55:11.850Z,8.70
2017-11-10T14:57:41.035Z,8.70
2017-11-10T15:00:09.913Z,8.70
2017-11-10T15:02:38.369Z,8.70
2017-11-10T15:05:07.216Z,8.70
2017-11-10T15:07:35.653Z,8.70
2017-11-10T15:10:04.534Z,8.70
2017-11-10T15:12:33.939Z,8.70
2017-11-10T15:15:03.867Z,8.70
2017-11-10T15:17:33.960Z,8.70
2017-11-10T15:20:03.713Z,8.70
2017-11-10T15:22:34.385Z,8.70
2017-11-10T15:25:04.313Z,8.70
2017-11-10T15:27:35.110Z,8.60
2017-11-10T15:30:05.076Z,8.60
2017-11-10T15:32:35.762Z,8.50
2017-11-10T15:35:05.598Z,8.50
2017-11-10T15:37:35.908Z,8.40
2017-11-10T15:40:06.253Z,8.30
2017-11-10T15:42:36.013Z,8.10
2017-11-10T15:45:06.049Z,8.10
2017-11-10T15:47:36.761Z,8.10
2017-11-10T15:50:06.419Z,8.00
2017-11-10T15:52:37.904Z,7.80
2017-11-10T15:55:07.739Z,7.80
2017-11-10T15:57:38.419Z,7.70
2017-11-10T16:00:08.476Z,7.70
2017-11-10T16:02:38.503Z,7.60
2017-11-10T16:05:08.312Z,7.50
2017-11-10T16:07:38.168Z,7.50
2017-11-10T16:10:08.354Z,7.40
2017-11-10T16:12:39.097Z,7.40
2017-11-10T16:15:08.980Z,7.40
2017-11-10T16:17:39.019Z,7.40
2017-11-10T16:20:09.806Z,7.40
2017-11-10T16:22:39.556Z,7.40
2017-11-10T16:25:09.500Z,7.30
2017-11-10T16:27:39.667Z,7.40
2017-11-10T16:30:09.783Z,7.30
2017-11-10T16:32:39.537Z,7.30
2017-11-10T16:35:09.375Z,7.30
2017-11-10T16:37:39.419Z,7.30
2017-11-10T16:40:09.343Z,7.40
2017-11-10T16:42:39.112Z,7.40
2017-11-10T16:45:08.886Z,7.40
2017-11-10T16:47:38.705Z,7.50
2017-11-10T16:50:08.820Z,7.50
2017-11-10T16:52:38.870Z,7.50
2017-11-10T16:55:08.914Z,7.50
2017-11-10T16:57:39.709Z,7.50
2017-11-10T17:00:09.843Z,7.40
2017-11-10T17:02:39.850Z,7.40
2017-11-10T17:05:10.767Z,7.50
2017-11-10T17:07:40.568Z,7.40
2017-11-10T17:10:10.417Z,7.30
2017-11-10T17:12:40.320Z,7.30
2017-11-10T17:15:10.359Z,7.20
2017-11-10T17:17:41.212Z,7.10
2017-11-10T17:20:12.219Z,7.00
2017-11-10T17:22:42.340Z,7.00
2017-11-10T17:41:18.151Z,6.80
2017-11-10T17:43:48.146Z,6.80
2017-11-10T17:46:18.013Z,6.80
2017-11-10T17:48:49.234Z,6.80
2017-11-10T17:51:19.162Z,6.70
2017-11-10T17:53:49.203Z,6.80
2017-11-10T17:56:19.156Z,6.70
2017-11-10T17:58:49.221Z,6.70
2017-11-10T18:01:20.841Z,6.70
2017-11-10T18:03:51.914Z,6.70
2017-11-10T18:06:23.679Z,6.70
2017-11-10T18:08:54.800Z,6.70
2017-11-10T18:11:25.294Z,6.70
2017-11-10T18:13:55.825Z,6.70
2017-11-10T18:16:25.842Z,6.70
2017-11-10T18:18:55.532Z,6.70
2017-11-10T18:21:27.282Z,6.70
2017-11-10T18:23:58.457Z,6.60
2017-11-10T18:26:29.229Z,6.60
2017-11-10T18:28:58.910Z,6.60
2017-11-10T18:31:28.781Z,6.60
2017-11-10T18:33:59.135Z,6.60
2017-11-10T18:36:29.873Z,6.60
2017-11-10T18:38:59.887Z,6.60
2017-11-10T18:41:29.834Z,6.60
2017-11-10T18:44:00.045Z,6.60
2017-11-10T18:46:29.938Z,6.60
2017-11-10T18:49:05.262Z,6.50
2017-11-10T18:51:35.820Z,6.50
2017-11-10T18:54:06.565Z,6.50
2017-11-10T18:56:36.446Z,6.50
2017-11-10T18:59:06.493Z,6.50
2017-11-10T19:01:36.603Z,6.50
2017-11-10T19:04:06.448Z,6.50
2017-11-10T19:06:38.087Z,6.40
2017-11-10T19:09:07.846Z,6.40
2017-11-10T19:11:38.019Z,6.40
2017-11-10T19:14:08.225Z,6.50
2017-11-10T19:16:38.253Z,6.40
2017-11-10T19:19:08.140Z,6.40
2017-11-10T19:21:38.175Z,6.40
2017-11-10T19:24:07.984Z,6.40
2017-11-10T19:26:38.369Z,6.40
2017-11-10T19:29:08.165Z,6.40
2017-11-10T19:31:39.750Z,6.40
2017-11-10T19:34:10.567Z,6.30
2017-11-10T19:36:41.720Z,6.30
2017-11-10T19:39:11.973Z,6.30
2017-11-10T19:41:46.572Z,6.30
2017-11-10T19:44:17.284Z,6.30
2017-11-10T19:46:48.817Z,6.30
2017-11-10T19:49:18.875Z,6.30
2017-11-10T19:51:48.771Z,6.30
2017-11-10T19:54:18.842Z,6.30
2017-11-10T19:56:50.926Z,6.30
2017-11-10T19:59:20.885Z,6.30
2017-11-10T20:01:50.963Z,6.30
2017-11-10T20:04:20.857Z,6.30
2017-11-10T20:06:50.885Z,6.30
2017-11-10T20:09:21.380Z,6.40
2017-11-10T20:11:53.961Z,6.60
2017-11-10T20:14:25.357Z,6.60
2017-11-10T20:16:55.493Z,6.60
2017-11-10T20:19:26.222Z,6.60
2017-11-10T20:21:57.125Z,6.50
2017-11-10T20:24:26.965Z,6.50
2017-11-10T20:26:57.988Z,6.50
2017-11-10T20:29:27.840Z,6.40
2017-11-10T20:31:59.132Z,6.30
2017-11-10T20:34:31.061Z,6.20
2017-11-10T20:37:01.026Z,6.20
2017-11-10T20:39:30.771Z,6.20
2017-11-10T20:42:01.492Z,6.10
2017-11-10T20:44:33.406Z,6.10
2017-11-10T20:47:03.642Z,6.10
2017-11-10T20:49:34.372Z,6.10
2017-11-10T20:52:04.288Z,6.00
2017-11-10T20:54:34.082Z,6.00
2017-11-10T20:57:04.159Z,6.00
2017-11-10T20:59:34.236Z,5.90
2017-11-10T21:02:05.211Z,5.90
2017-11-10T21:04:35.230Z,5.90
2017-11-10T21:07:06.404Z,5.90
2017-11-10T21:09:36.055Z,5.90
2017-11-10T21:12:06.004Z,5.80
2017-11-10T21:14:35.978Z,5.80
2017-11-10T21:17:06.243Z,5.80
2017-11-10T21:19:37.330Z,5.80
2017-11-10T21:22:07.604Z,5.80
2017-11-10T21:24:38.416Z,5.70
2017-11-10T21:27:10.044Z,5.70
2017-11-10T21:29:41.053Z,5.70
2017-11-10T21:32:11.077Z,5.70
2017-11-10T21:34:42.120Z,5.60
2017-11-10T21:37:12.000Z,5.70
2017-11-10T21:39:41.964Z,5.70
2017-11-10T21:42:11.960Z,5.70
2017-11-10T21:44:42.014Z,5.80
2017-11-10T21:49:48.836Z,5.90
2017-11-10T21:52:18.869Z,5.90
2017-11-10T21:54:48.811Z,5.90
2017-11-10T21:57:21.012Z,6.00
2017-11-10T21:59:51.040Z,6.00
2017-11-10T22:02:20.800Z,6.10
2017-11-10T22:04:51.737Z,6.10
2017-11-10T22:07:22.976Z,6.10
2017-11-10T22:09:55.340Z,6.10
2017-11-10T22:12:25.352Z,6.10
2017-11-10T22:14:55.908Z,6.00
2017-11-10T22:17:25.982Z,6.00
2017-11-10T22:19:57.007Z,6.00
2017-11-10T22:22:27.011Z,5.90
2017-11-10T22:24:57.266Z,5.90
2017-11-10T22:27:27.431Z,5.80
2017-11-10T22:29:57.532Z,5.80
2017-11-10T22:32:27.329Z,5.80
2017-11-10T22:34:57.967Z,5.80
2017-11-10T22:37:27.790Z,5.80
2017-11-10T22:39:58.159Z,5.80
2017-11-10T22:42:28.006Z,5.80
2017-11-10T22:44:59.417Z,5.80
2017-11-10T22:47:29.439Z,5.70
2017-11-10T22:49:59.464Z,5.70
2017-11-10T22:52:30.752Z,5.70
2017-11-10T22:55:01.194Z,5.70
2017-11-10T22:57:31.052Z,5.60
2017-11-10T23:00:02.656Z,5.60
2017-11-10T23:02:32.556Z,5.60
2017-11-10T23:05:02.453Z,5.60
2017-11-10T23:07:32.237Z,5.60
2017-11-10T23:10:02.624Z,5.60
2017-11-10T23:12:33.401Z,5.50
2017-11-10T23:15:04.875Z,5.50
2017-11-10T23:17:34.889Z,5.50
2017-11-10T23:20:04.767Z,5.50
2017-11-10T23:22:34.741Z,5.40
2017-11-10T23:25:04.961Z,5.40
2017-11-10T23:27:36.513Z,5.40
2017-11-10T23:30:07.228Z,5.40
2017-11-10T23:32:37.509Z,5.40
2017-11-10T23:35:08.333Z,5.40
2017-11-10T23:37:40.506Z,5.40
2017-11-10T23:40:12.124Z,5.40
2017-11-10T23:42:43.656Z,5.40
2017-11-10T23:45:15.127Z,5.40
2017-11-10T23:47:49.152Z,5.40
2017-11-10T23:50:21.529Z,5.40
2017-11-10T23:52:53.084Z,5.40
2017-11-10T23:55:23.916Z,5.50
2017-11-10T23:57:53.657Z,5.40
